createdAt,value
2018-04-02T00:00:47.335Z,8.48
2018-04-02T00:01:58.402Z,8.48
2018-04-02T00:02:44.277Z,8.58
2018-04-02T00:04:16.338Z,8.50
2018-04-02T00:05:10.815Z,8.48
2018-04-02T00:06:21.470Z,8.53
2018-04-02T00:07:29.567Z,8.50
2018-04-02T00:08:23.634Z,8.55
2018-04-02T00:09:39.924Z,8.50
2018-04-02T00:10:43.516Z,8.45
2018-04-02T00:11:48.856Z,8.53
2018-04-02T00:12:50.184Z,8.39
2018-04-02T00:13:53.879Z,8.44
2018-04-02T00:15:04.842Z,8.47
2018-04-02T00:15:56.554Z,8.45
2018-04-02T00:17:12.543Z,8.45
2018-04-02T00:18:32.920Z,8.35
2018-04-02T00:19:28.729Z,8.44
2018-04-02T00:20:32.524Z,8.42
2018-04-02T00:22:44.417Z,8.40
2018-04-02T00:23:55.177Z,8.42
2018-04-02T00:25:11.158Z,8.39
2018-04-02T00:25:51.093Z,8.40
2018-04-02T00:28:14.153Z,8.39
2018-04-02T00:29:13.234Z,8.44
2018-04-02T00:30:13.753Z,8.36
2018-04-02T00:31:28.103Z,8.35
2018-04-02T00:32:34.041Z,8.30
2018-04-02T00:33:34.974Z,8.30
2018-04-02T00:34:55.048Z,8.30
2018-04-02T00:35:56.489Z,8.26
2018-04-02T00:36:51.785Z,8.26
2018-04-02T00:39:08.799Z,8.15
2018-04-02T00:40:11.980Z,8.22
2018-04-02T00:42:26.742Z,8.21
2018-04-02T00:43:34.532Z,8.17
2018-04-02T00:44:31.157Z,8.20
2018-04-02T00:45:42.121Z,8.18
2018-04-02T00:46:47.144Z,8.25
2018-04-02T00:47:45.206Z,8.12
2018-04-02T00:48:48.855Z,8.14
2018-04-02T00:49:59.787Z,8.20
2018-04-02T00:51:07.446Z,8.18
2018-04-02T00:52:28.857Z,8.11
2018-04-02T00:53:07.459Z,8.15
2018-04-02T00:57:25.715Z,8.12
2018-04-02T00:58:37.809Z,8.20
2018-04-02T00:59:55.327Z,8.14
2018-04-02T01:01:11.000Z,8.15
2018-04-02T01:02:12.648Z,8.15
2018-04-02T01:02:59.545Z,8.11
2018-04-02T01:04:15.525Z,8.02
2018-04-02T01:06:25.371Z,8.07
2018-04-02T01:08:29.069Z,8.02
2018-04-02T01:09:42.902Z,8.02
2018-04-02T01:10:56.528Z,8.04
2018-04-02T01:11:54.590Z,8.08
2018-04-02T01:13:02.522Z,8.02
2018-04-02T01:14:01.772Z,7.97
2018-04-02T01:15:09.562Z,7.97
2018-04-02T01:16:11.819Z,7.93
2018-04-02T01:17:10.805Z,7.92
2018-04-02T01:18:15.930Z,7.92
2018-04-02T01:22:48.316Z,7.79
2018-04-02T01:23:58.361Z,7.81
2018-04-02T01:25:02.668Z,7.72
2018-04-02T01:25:56.426Z,7.71
2018-04-02T01:27:10.667Z,7.69
2018-04-02T01:28:04.020Z,7.66
2018-04-02T01:29:21.845Z,7.58
2018-04-02T01:30:18.163Z,7.63
2018-04-02T01:31:35.886Z,7.59
2018-04-02T01:33:57.815Z,7.62
2018-04-02T01:35:03.983Z,7.55
2018-04-02T01:35:59.876Z,7.56
2018-04-02T01:36:53.636Z,7.41
2018-04-02T01:38:22.214Z,7.47
2018-04-02T01:39:43.320Z,7.44
2018-04-02T01:40:10.024Z,7.45
2018-04-02T01:41:23.975Z,7.38
2018-04-02T01:42:17.635Z,7.35
2018-04-02T01:44:15.805Z,7.37
2018-04-02T01:45:08.534Z,7.29
2018-04-02T01:47:06.404Z,7.31
2018-04-02T01:48:57.920Z,7.22
2018-04-02T01:51:40.942Z,7.22
2018-04-02T01:52:47.912Z,7.20
2018-04-02T01:53:57.237Z,7.13
2018-04-02T01:55:07.082Z,7.19
2018-04-02T01:55:58.683Z,7.07
2018-04-02T01:57:18.976Z,7.02
2018-04-02T01:58:06.277Z,7.02
2018-04-02T01:59:16.727Z,7.09
2018-04-02T02:00:27.593Z,6.98
2018-04-02T02:01:25.754Z,6.98
2018-04-02T02:02:41.940Z,6.98
2018-04-02T02:03:38.362Z,6.98
2018-04-02T02:04:37.754Z,6.89
2018-04-02T02:05:41.757Z,6.91
2018-04-02T02:07:02.447Z,6.91
2018-04-02T02:07:57.333Z,6.94
2018-04-02T02:09:26.429Z,6.87
2018-04-02T02:10:04.003Z,6.90
2018-04-02T02:11:14.354Z,6.84
2018-04-02T02:12:25.834Z,6.81
2018-04-02T02:13:34.235Z,6.79
2018-04-02T02:15:22.165Z,6.79
2018-04-02T02:16:12.136Z,6.77
2018-04-02T02:16:58.116Z,6.69
2018-04-02T02:18:16.962Z,6.80
2018-04-02T02:19:50.454Z,6.69
2018-04-02T02:20:46.573Z,6.66
2018-04-02T02:22:43.104Z,6.63
2018-04-02T02:23:52.946Z,6.54
2018-04-02T02:24:31.955Z,6.56
2018-04-02T02:26:15.585Z,6.54
2018-04-02T02:27:17.232Z,6.47
2018-04-02T02:29:13.149Z,6.51
2018-04-02T02:30:44.910Z,6.58
2018-04-02T02:31:17.775Z,6.48
2018-04-02T02:32:20.850Z,6.48
2018-04-02T02:33:23.518Z,6.44
2018-04-02T02:35:56.305Z,6.30
2018-04-02T02:36:41.049Z,6.38
2018-04-02T02:37:52.834Z,6.40
2018-04-02T02:39:00.624Z,6.40
2018-04-02T02:40:11.493Z,6.19
2018-04-02T02:41:10.469Z,6.33
2018-04-02T02:42:23.173Z,6.21
2018-04-02T02:43:21.031Z,6.19
2018-04-02T02:44:18.884Z,6.18
2018-04-02T02:45:22.682Z,6.25
2018-04-02T02:47:33.345Z,6.21
2018-04-02T02:48:55.162Z,6.18
2018-04-02T02:50:02.959Z,6.18
2018-04-02T02:50:46.780Z,6.04
2018-04-02T02:52:08.093Z,6.13
2018-04-02T02:53:08.402Z,6.07
2018-04-02T02:54:11.381Z,6.11
2018-04-02T02:55:13.228Z,6.14
2018-04-02T02:58:45.609Z,6.06
2018-04-02T02:59:45.621Z,5.98
2018-04-02T03:00:48.797Z,6.00
2018-04-02T03:01:45.218Z,6.00
2018-04-02T03:02:48.502Z,5.88
2018-04-02T03:04:15.036Z,5.98
2018-04-02T03:06:11.460Z,5.82
2018-04-02T03:07:06.961Z,5.86
2018-04-02T03:08:18.233Z,5.85
2018-04-02T03:09:23.362Z,5.86
2018-04-02T03:10:28.750Z,5.86
2018-04-02T03:11:38.020Z,5.75
2018-04-02T03:12:41.299Z,5.82
2018-04-02T03:13:43.367Z,5.71
2018-04-02T03:14:54.217Z,5.70
2018-04-02T03:15:55.965Z,5.77
2018-04-02T03:17:01.603Z,5.70
2018-04-02T03:18:06.423Z,5.73
2018-04-02T03:19:15.339Z,5.67
2018-04-02T03:21:23.954Z,5.66
2018-04-02T03:22:27.853Z,5.68
2018-04-02T03:23:36.872Z,5.59
2018-04-02T03:24:42.817Z,5.56
2018-04-02T03:25:42.312Z,5.64
2018-04-02T03:26:49.384Z,5.60
2018-04-02T03:27:57.276Z,5.64
2018-04-02T03:29:05.168Z,5.70
2018-04-02T03:30:12.959Z,5.55
2018-04-02T03:31:07.539Z,5.57
2018-04-02T03:32:17.279Z,5.55
2018-04-02T03:33:16.562Z,5.66
2018-04-02T03:34:24.969Z,5.66
2018-04-02T03:35:31.017Z,5.50
2018-04-02T03:36:40.033Z,5.63
2018-04-02T03:39:04.625Z,5.48
2018-04-02T03:39:49.375Z,5.50
2018-04-02T03:40:58.700Z,5.57
2018-04-02T03:42:09.258Z,5.60
2018-04-02T03:43:12.024Z,5.55
2018-04-02T03:44:15.615Z,5.50
2018-04-02T03:45:32.109Z,5.53
2018-04-02T03:47:33.146Z,5.50
2018-04-02T03:48:42.063Z,5.49
2018-04-02T03:49:47.189Z,5.56
2018-04-02T03:51:05.733Z,5.52
2018-04-02T03:51:58.469Z,5.53
2018-04-02T03:53:04.210Z,5.48
2018-04-02T03:54:09.235Z,5.46
2018-04-02T03:55:16.204Z,5.53
2018-04-02T03:56:20.514Z,5.53
2018-04-02T03:57:22.570Z,5.55
2018-04-02T03:58:30.560Z,5.52
2018-04-02T03:59:36.201Z,5.43
2018-04-02T04:00:45.116Z,5.50
2018-04-02T04:01:57.002Z,5.41
2018-04-02T04:02:52.605Z,5.50
2018-04-02T04:03:58.860Z,5.49
2018-04-02T04:04:56.512Z,5.43
2018-04-02T04:07:13.013Z,5.41
2018-04-02T04:08:18.137Z,5.48
2018-04-02T04:09:26.646Z,5.41
2018-04-02T04:10:24.501Z,5.43
2018-04-02T04:11:36.591Z,5.37
2018-04-02T04:12:45.304Z,5.38
2018-04-02T04:13:42.646Z,5.41
2018-04-02T04:15:59.352Z,5.41
2018-04-02T04:16:58.543Z,5.41
2018-04-02T04:18:11.448Z,5.41
2018-04-02T04:19:20.160Z,5.46
2018-04-02T04:20:16.174Z,5.41
2018-04-02T04:21:22.018Z,5.46
2018-04-02T04:22:37.897Z,5.41
2018-04-02T04:24:41.803Z,5.53
2018-04-02T04:25:46.110Z,5.57
2018-04-02T04:27:01.068Z,5.49
2018-04-02T04:28:59.544Z,5.52
2018-04-02T04:30:14.404Z,5.56
2018-04-02T04:31:10.925Z,5.67
2018-04-02T04:32:17.895Z,5.67
2018-04-02T04:33:31.522Z,5.60
2018-04-02T04:34:34.806Z,5.59
2018-04-02T04:35:35.121Z,5.73
2018-04-02T04:36:44.243Z,5.74
2018-04-02T04:37:49.059Z,5.78
2018-04-02T04:38:53.163Z,5.86
2018-04-02T04:39:53.578Z,5.75
2018-04-02T04:41:04.235Z,5.88
2018-04-02T04:42:14.278Z,5.81
2018-04-02T04:44:21.051Z,5.85
2018-04-02T04:45:27.516Z,5.88
2018-04-02T04:46:34.582Z,5.78
2018-04-02T04:47:36.431Z,5.78
2018-04-02T04:48:45.966Z,5.85
2018-04-02T04:49:49.143Z,5.77
2018-04-02T04:50:56.524Z,5.77
2018-04-02T04:52:05.748Z,5.82
2018-04-02T04:53:04.524Z,5.78
2018-04-02T04:54:11.085Z,5.73
2018-04-02T04:55:16.008Z,5.89
2018-04-02T04:56:20.725Z,5.77
2018-04-02T04:57:26.365Z,5.74
2018-04-02T04:58:30.671Z,5.81
2018-04-02T04:59:43.479Z,5.88
2018-04-02T05:00:45.022Z,5.71
2018-04-02T05:01:53.118Z,5.81
2018-04-02T05:02:54.866Z,5.74
2018-04-02T05:03:58.559Z,5.74
2018-04-02T05:05:01.537Z,5.73
2018-04-02T05:06:16.493Z,5.68
2018-04-02T05:07:15.067Z,5.64
2018-04-02T05:08:28.693Z,5.60
2018-04-02T05:09:24.915Z,5.64
2018-04-02T05:10:35.677Z,5.60
2018-04-02T05:11:37.521Z,5.60
2018-04-02T05:12:37.427Z,5.63
2018-04-02T05:13:43.781Z,5.63
2018-04-02T05:14:50.239Z,5.49
2018-04-02T05:16:05.606Z,5.55
2018-04-02T05:17:06.232Z,5.57
2018-04-02T05:18:08.078Z,5.45
2018-04-02T05:19:15.151Z,5.57
2018-04-02T05:20:24.067Z,5.64
2018-04-02T05:22:29.512Z,5.55
2018-04-02T05:23:37.400Z,5.50
2018-04-02T05:25:49.395Z,5.53
2018-04-02T05:26:56.059Z,5.59
2018-04-02T05:28:00.878Z,5.48
2018-04-02T05:29:03.853Z,5.55
2018-04-02T05:30:11.441Z,5.59
2018-04-02T05:31:11.957Z,5.56
2018-04-02T05:33:32.764Z,5.50
2018-04-02T05:34:28.669Z,5.55
2018-04-02T05:35:39.638Z,5.57
2018-04-02T05:36:43.020Z,5.45
2018-04-02T05:37:49.580Z,5.66
2018-04-02T05:39:03.719Z,5.64
2018-04-02T05:40:02.394Z,5.66
2018-04-02T05:41:13.469Z,5.63
2018-04-02T05:42:06.504Z,5.50
2018-04-02T05:43:22.281Z,5.55
2018-04-02T05:44:23.005Z,5.63
2018-04-02T05:45:27.628Z,5.59
2018-04-02T05:46:31.420Z,5.57
2018-04-02T05:47:42.689Z,5.63
2018-04-02T05:48:43.512Z,5.63
2018-04-02T05:49:48.128Z,5.63
2018-04-02T05:51:01.090Z,5.57
2018-04-02T05:52:08.213Z,5.63
2018-04-02T05:53:04.635Z,5.66
2018-04-02T05:54:08.698Z,5.64
2018-04-02T05:55:20.523Z,5.59
2018-04-02T05:56:21.961Z,5.71
2018-04-02T05:57:28.011Z,5.75
2018-04-02T05:58:30.990Z,5.59
2018-04-02T05:59:49.634Z,5.75
2018-04-02T06:00:51.277Z,5.73
2018-04-02T06:01:53.643Z,5.78
2018-04-02T06:02:59.076Z,5.75
2018-04-02T06:03:59.899Z,5.75
2018-04-02T06:05:08.749Z,5.78
2018-04-02T06:06:24.088Z,5.73
2018-04-02T06:07:18.250Z,5.81
2018-04-02T06:08:23.275Z,5.83
2018-04-02T06:09:28.811Z,5.85
2018-04-02T06:10:32.918Z,5.86
2018-04-02T06:11:39.681Z,5.89
2018-04-02T06:12:47.783Z,6.00
2018-04-02T06:13:47.168Z,6.00
2018-04-02T06:14:56.392Z,6.03
2018-04-02T06:16:05.131Z,6.09
2018-04-02T06:17:06.544Z,6.10
2018-04-02T06:18:21.398Z,6.21
2018-04-02T06:19:18.238Z,6.14
2018-04-02T06:20:27.044Z,6.21
2018-04-02T06:21:44.153Z,6.41
2018-04-02T06:22:37.093Z,6.40
2018-04-02T06:24:00.552Z,6.44
2018-04-02T06:24:44.379Z,6.47
2018-04-02T06:25:56.682Z,6.46
2018-04-02T06:27:05.490Z,6.53
2018-04-02T06:28:11.843Z,6.50
2018-04-02T06:31:28.353Z,6.71
2018-04-02T06:32:30.508Z,6.76
2018-04-02T06:33:41.062Z,6.76
2018-04-02T06:34:35.846Z,6.79
2018-04-02T06:35:55.925Z,6.87
2018-04-02T06:37:02.735Z,6.90
2018-04-02T06:39:16.228Z,6.97
2018-04-02T06:40:09.063Z,7.05
2018-04-02T06:41:24.328Z,7.04
2018-04-02T06:43:28.438Z,7.15
2018-04-02T06:44:45.337Z,7.17
2018-04-02T06:45:55.690Z,7.23
2018-04-02T06:47:06.037Z,7.29
2018-04-02T06:48:08.808Z,7.29
2018-04-02T06:48:50.794Z,7.35
2018-04-02T06:50:20.503Z,7.38
2018-04-02T06:52:32.185Z,7.45
2018-04-02T06:53:35.466Z,7.56
2018-04-02T06:54:52.882Z,7.56
2018-04-02T06:57:19.316Z,7.59
2018-04-02T06:59:17.181Z,7.72
2018-04-02T07:01:04.701Z,7.75
2018-04-02T07:03:12.395Z,7.87
2018-04-02T07:04:31.197Z,7.97
2018-04-02T07:05:04.318Z,8.07
2018-04-02T07:07:32.596Z,8.17
2018-04-02T07:08:31.679Z,8.20
2018-04-02T07:10:52.482Z,8.18
2018-04-02T07:13:48.412Z,8.28
2018-04-02T07:15:18.623Z,8.22
2018-04-02T07:16:11.869Z,8.28
2018-04-02T07:17:10.854Z,8.29
2018-04-02T07:18:12.502Z,8.35
2018-04-02T07:19:08.517Z,8.26
2018-04-02T07:21:27.062Z,8.57
2018-04-02T07:22:52.770Z,8.48
2018-04-02T07:23:35.272Z,8.53
2018-04-02T07:24:45.410Z,8.63
2018-04-02T07:25:46.035Z,8.65
2018-04-02T07:28:13.799Z,8.88
2018-04-02T07:30:12.582Z,8.99
2018-04-02T07:31:05.012Z,8.97
2018-04-02T07:32:24.074Z,9.05
2018-04-02T07:33:33.187Z,9.09
2018-04-02T07:34:34.016Z,9.05
2018-04-02T07:35:33.712Z,9.12
2018-04-02T07:37:42.329Z,9.24
2018-04-02T07:39:02.404Z,9.21
2018-04-02T07:41:03.963Z,9.35
2018-04-02T07:42:06.120Z,9.38
2018-04-02T07:43:14.417Z,9.48
2018-04-02T07:44:25.511Z,9.48
2018-04-02T07:48:44.146Z,9.53
2018-04-02T07:49:38.110Z,9.61
2018-04-02T07:50:40.913Z,9.64
2018-04-02T07:52:57.281Z,9.83
2018-04-02T07:54:09.679Z,10.01
2018-04-02T07:55:10.505Z,10.14
2018-04-02T07:56:10.000Z,10.24
2018-04-02T07:57:24.752Z,10.33
2018-04-02T07:58:20.252Z,10.33
2018-04-02T07:59:30.499Z,10.32
2018-04-02T08:00:41.158Z,10.39
2018-04-02T08:01:46.702Z,10.39
2018-04-02T08:03:56.437Z,10.43
2018-04-02T08:04:56.553Z,10.34
2018-04-02T08:06:07.611Z,10.42
2018-04-02T08:07:10.485Z,10.32
2018-04-02T08:08:32.616Z,10.46
2018-04-02T08:09:24.118Z,10.43
2018-04-02T08:10:20.234Z,10.44
2018-04-02T08:11:36.728Z,10.52
2018-04-02T08:12:40.115Z,10.52
2018-04-02T08:13:48.621Z,10.51
2018-04-02T08:14:56.827Z,10.58
2018-04-02T08:15:58.259Z,10.62
2018-04-02T08:16:55.297Z,10.59
2018-04-02T08:18:04.939Z,10.70
2018-04-02T08:19:05.243Z,10.58
2018-04-02T08:20:20.101Z,10.68
2018-04-02T08:21:18.281Z,10.77
2018-04-02T08:22:39.375Z,10.70
2018-04-02T08:23:32.206Z,10.73
2018-04-02T08:24:42.553Z,10.70
2018-04-02T08:25:54.749Z,10.77
2018-04-02T08:26:53.830Z,10.91
2018-04-02T08:28:09.097Z,11.01
2018-04-02T08:30:10.338Z,11.14
2018-04-02T08:31:14.849Z,11.11
2018-04-02T08:32:33.934Z,11.03
2018-04-02T08:33:23.978Z,11.10
2018-04-02T08:35:37.718Z,11.24
2018-04-02T08:36:38.539Z,11.20
2018-04-02T08:37:52.577Z,11.25
2018-04-02T08:38:51.813Z,11.21
2018-04-02T08:42:10.328Z,11.38
2018-04-02T08:43:13.503Z,11.39
2018-04-02T08:44:22.858Z,11.41
2018-04-02T08:45:37.173Z,11.50
2018-04-02T08:47:58.079Z,11.50
2018-04-02T08:49:36.071Z,11.52
2018-04-02T08:50:01.638Z,11.53
2018-04-02T08:53:26.069Z,11.71
2018-04-02T08:56:43.799Z,11.68
2018-04-02T08:59:56.162Z,11.93
2018-04-02T09:01:17.423Z,11.90
2018-04-02T09:02:21.122Z,11.96
2018-04-02T09:05:27.072Z,12.19
2018-04-02T09:07:40.404Z,12.27
2018-04-02T09:10:44.079Z,12.31
2018-04-02T09:11:58.330Z,12.39
2018-04-02T09:13:01.126Z,12.54
2018-04-02T09:14:19.061Z,12.57
2018-04-02T09:15:30.158Z,12.62
2018-04-02T09:16:14.339Z,12.54
2018-04-02T09:18:39.919Z,12.54
2018-04-02T09:19:35.874Z,12.37
2018-04-02T09:21:45.738Z,12.45
2018-04-02T09:22:52.807Z,12.57
2018-04-02T09:23:48.615Z,12.62
2018-04-02T09:26:02.659Z,12.60
2018-04-02T09:27:13.419Z,12.63
2018-04-02T09:30:33.824Z,12.74
2018-04-02T09:31:31.988Z,12.74
2018-04-02T09:32:48.685Z,12.78
2018-04-02T09:33:38.967Z,12.77
2018-04-02T09:35:53.112Z,12.82
2018-04-02T09:37:00.082Z,12.82
2018-04-02T09:38:03.987Z,12.89
2018-04-02T09:39:09.980Z,12.87
2018-04-02T09:40:17.919Z,12.96
2018-04-02T09:41:26.015Z,12.99
2018-04-02T09:43:32.382Z,13.02
2018-04-02T09:44:38.528Z,12.99
2018-04-02T09:45:38.539Z,13.03
2018-04-02T09:46:52.162Z,13.09
2018-04-02T09:47:53.095Z,13.00
2018-04-02T09:49:11.328Z,12.99
2018-04-02T09:50:04.166Z,12.88
2018-04-02T09:51:03.763Z,12.96
2018-04-02T09:52:13.804Z,12.92
2018-04-02T09:53:36.342Z,12.85
2018-04-02T09:54:27.165Z,12.95
2018-04-02T09:55:33.385Z,13.00
2018-04-02T09:56:41.072Z,12.95
2018-04-02T09:57:48.247Z,13.00
2018-04-02T10:00:00.548Z,13.09
2018-04-02T10:02:02.719Z,13.04
2018-04-02T10:03:04.255Z,13.11
2018-04-02T10:04:19.930Z,13.14
2018-04-02T10:05:20.454Z,13.20
2018-04-02T10:06:34.699Z,13.14
2018-04-02T10:07:39.817Z,13.20
2018-04-02T10:08:45.047Z,13.07
2018-04-02T10:09:50.897Z,13.12
2018-04-02T10:10:52.638Z,13.09
2018-04-02T10:12:01.349Z,13.21
2018-04-02T10:13:07.807Z,13.17
2018-04-02T10:14:06.073Z,13.24
2018-04-02T10:15:18.982Z,13.24
2018-04-02T10:16:13.154Z,13.33
2018-04-02T10:17:23.402Z,13.33
2018-04-02T10:18:33.647Z,13.30
2018-04-02T10:19:37.545Z,13.32
2018-04-02T10:20:39.397Z,13.44
2018-04-02T10:21:44.529Z,13.37
2018-04-02T10:22:48.019Z,13.37
2018-04-02T10:24:04.270Z,13.37
2018-04-02T10:25:11.576Z,13.30
2018-04-02T10:26:20.495Z,13.30
2018-04-02T10:27:18.861Z,13.46
2018-04-02T10:30:29.744Z,13.46
2018-04-02T10:33:49.111Z,13.61
2018-04-02T10:34:49.630Z,13.51
2018-04-02T10:36:06.437Z,13.58
2018-04-02T10:36:54.661Z,13.58
2018-04-02T10:38:14.533Z,13.58
2018-04-02T10:39:28.063Z,13.58
2018-04-02T10:40:26.232Z,13.63
2018-04-02T10:42:32.198Z,13.73
2018-04-02T10:44:02.936Z,13.59
2018-04-02T10:45:12.179Z,13.69
2018-04-02T10:45:55.648Z,13.67
2018-04-02T10:48:04.365Z,13.81
2018-04-02T10:49:07.978Z,13.73
2018-04-02T10:50:20.355Z,13.83
2018-04-02T10:51:19.437Z,13.77
2018-04-02T10:52:24.565Z,13.81
2018-04-02T10:54:45.061Z,13.84
2018-04-02T10:55:47.194Z,13.83
2018-04-02T10:56:57.776Z,13.80
2018-04-02T10:57:52.250Z,13.80
2018-04-02T10:59:06.388Z,13.74
2018-04-02T11:00:11.208Z,13.69
2018-04-02T11:01:12.344Z,13.83
2018-04-02T11:02:45.731Z,13.84
2018-04-02T11:03:22.902Z,13.87
2018-04-02T11:04:16.149Z,13.84
2018-04-02T11:05:27.626Z,13.92
2018-04-02T11:06:45.757Z,13.91
2018-04-02T11:07:52.727Z,13.95
2018-04-02T11:08:52.121Z,13.99
2018-04-02T11:10:25.817Z,14.06
2018-04-02T11:11:24.186Z,14.13
2018-04-02T11:12:22.146Z,14.21
2018-04-02T11:13:16.973Z,14.24
2018-04-02T11:14:39.680Z,14.28
2018-04-02T11:15:34.659Z,14.31
2018-04-02T11:16:35.837Z,14.34
2018-04-02T11:18:18.405Z,14.42
2018-04-02T11:21:08.281Z,14.46
2018-04-02T11:22:03.680Z,14.47
2018-04-02T11:23:00.206Z,14.38
2018-04-02T11:24:13.227Z,14.43
2018-04-02T11:25:24.077Z,14.37
2018-04-02T11:26:38.525Z,14.42
2018-04-02T11:27:56.556Z,14.35
2018-04-02T11:28:56.722Z,14.34
2018-04-02T11:29:52.272Z,14.39
2018-04-02T11:31:08.760Z,14.34
2018-04-02T11:32:50.961Z,14.37
2018-04-02T11:34:33.159Z,14.35
2018-04-02T11:36:47.708Z,14.37
2018-04-02T11:38:28.264Z,14.52
2018-04-02T11:39:59.610Z,14.44
2018-04-02T11:40:47.430Z,14.56
2018-04-02T11:41:55.218Z,14.61
2018-04-02T11:42:50.111Z,14.68
2018-04-02T11:43:51.238Z,14.65
2018-04-02T11:45:13.877Z,14.74
2018-04-02T11:45:54.733Z,14.86
2018-04-02T11:46:55.358Z,14.83
2018-04-02T11:48:11.665Z,14.88
2018-04-02T11:50:28.351Z,14.84
2018-04-02T11:51:20.984Z,14.84
2018-04-02T11:53:42.093Z,14.67
2018-04-02T11:54:57.971Z,14.67
2018-04-02T11:55:42.209Z,14.61
2018-04-02T11:57:10.071Z,14.57
2018-04-02T11:57:59.834Z,14.47
2018-04-02T11:58:58.621Z,14.47
2018-04-02T12:00:30.672Z,14.61
2018-04-02T12:01:11.326Z,14.60
2018-04-02T12:02:18.296Z,14.56
2018-04-02T12:04:37.971Z,14.61
2018-04-02T12:05:39.001Z,14.69
2018-04-02T12:06:52.934Z,14.74
2018-04-02T12:07:47.725Z,14.69
2018-04-02T12:08:49.671Z,14.83
2018-04-02T12:09:54.492Z,14.84
2018-04-02T12:12:13.245Z,14.87
2018-04-02T12:13:12.334Z,14.88
2018-04-02T12:15:35.283Z,14.91
2018-04-02T12:16:31.909Z,14.93
2018-04-02T12:17:40.935Z,14.90
2018-04-02T12:18:36.736Z,14.94
2018-04-02T12:19:41.862Z,14.94
2018-04-02T12:20:51.554Z,14.88
2018-04-02T12:21:58.671Z,14.93
2018-04-02T12:22:58.472Z,15.03
2018-04-02T12:25:11.597Z,15.24
2018-04-02T12:26:19.282Z,15.26
2018-04-02T12:27:26.050Z,15.46
2018-04-02T12:28:39.983Z,15.48
2018-04-02T12:30:36.616Z,15.57
2018-04-02T12:31:48.705Z,15.52
2018-04-02T12:32:54.960Z,15.66
2018-04-02T12:33:57.326Z,15.74
2018-04-02T12:35:07.775Z,15.79
2018-04-02T12:36:08.805Z,15.86
2018-04-02T12:37:13.630Z,16.01
2018-04-02T12:38:24.897Z,16.04
2018-04-02T12:39:31.150Z,16.16
2018-04-02T12:41:38.945Z,16.23
2018-04-02T12:42:53.598Z,16.35
2018-04-02T12:43:42.542Z,16.42
2018-04-02T12:47:12.059Z,16.33
2018-04-02T12:48:02.235Z,16.12
2018-04-02T12:49:17.497Z,16.18
2018-04-02T12:50:26.620Z,16.09
2018-04-02T12:53:48.758Z,16.15
2018-04-02T12:54:57.469Z,16.18
2018-04-02T12:55:51.756Z,16.12
2018-04-02T12:56:56.254Z,16.11
2018-04-02T12:59:04.815Z,16.20
2018-04-02T13:00:17.163Z,16.27
2018-04-02T13:01:30.892Z,16.33
2018-04-02T13:02:25.573Z,16.30
2018-04-02T13:03:29.678Z,16.34
2018-04-02T13:04:36.654Z,16.45
2018-04-02T13:05:46.691Z,16.45
2018-04-02T13:06:43.010Z,16.56
2018-04-02T13:10:07.299Z,16.88
2018-04-02T13:12:07.519Z,16.85
2018-04-02T13:13:15.922Z,16.95
2018-04-02T13:14:22.892Z,16.78
2018-04-02T13:15:36.322Z,16.85
2018-04-02T13:16:44.719Z,16.83
2018-04-02T13:17:36.031Z,16.77
2018-04-02T13:18:40.227Z,16.80
2018-04-02T13:19:49.347Z,16.81
2018-04-02T13:21:02.772Z,16.86
2018-04-02T13:21:59.611Z,16.88
2018-04-02T13:23:10.771Z,16.78
2018-04-02T13:24:08.118Z,16.81
2018-04-02T13:25:13.753Z,16.92
2018-04-02T13:26:15.091Z,16.99
2018-04-02T13:27:30.357Z,17.03
2018-04-02T13:28:30.774Z,17.11
2018-04-02T13:29:33.852Z,17.11
2018-04-02T13:31:02.124Z,17.03
2018-04-02T13:33:02.349Z,16.75
2018-04-02T13:36:10.666Z,16.40
2018-04-02T13:37:12.506Z,16.31
2018-04-02T13:38:20.910Z,16.25
2018-04-02T13:39:36.893Z,16.20
2018-04-02T13:40:38.845Z,16.20
2018-04-02T13:41:42.949Z,16.06
2018-04-02T13:42:44.389Z,16.00
2018-04-02T13:43:52.495Z,15.84
2018-04-02T13:46:01.314Z,15.68
2018-04-02T13:48:14.119Z,15.64
2018-04-02T13:49:11.053Z,15.59
2018-04-02T13:50:24.885Z,15.57
2018-04-02T13:51:26.531Z,15.49
2018-04-02T13:52:31.248Z,15.42
2018-04-02T13:53:37.911Z,15.45
2018-04-02T13:54:44.879Z,15.42
2018-04-02T13:55:46.118Z,15.46
2018-04-02T13:56:52.984Z,15.33
2018-04-02T13:59:07.234Z,15.36
2018-04-02T14:00:18.297Z,15.24
2018-04-02T14:01:16.669Z,15.21
2018-04-02T14:02:18.627Z,15.20
2018-04-02T14:03:23.234Z,15.23
2018-04-02T14:04:36.655Z,15.24
2018-04-02T14:05:44.449Z,15.17
2018-04-02T14:06:47.013Z,15.20
2018-04-02T14:07:46.610Z,15.15
2018-04-02T14:08:53.266Z,15.11
2018-04-02T14:10:06.592Z,15.23
2018-04-02T14:11:12.132Z,15.12
2018-04-02T14:12:11.848Z,15.20
2018-04-02T14:13:21.869Z,15.15
2018-04-02T14:14:19.625Z,15.17
2018-04-02T14:15:29.769Z,15.13
2018-04-02T14:16:33.466Z,15.21
2018-04-02T14:17:41.866Z,15.21
2018-04-02T14:18:46.177Z,15.24
2018-04-02T14:19:52.429Z,15.24
2018-04-02T14:22:04.012Z,15.24
2018-04-02T14:23:13.953Z,15.15
2018-04-02T14:24:11.706Z,15.15
2018-04-02T14:25:17.858Z,15.19
2018-04-02T14:26:22.996Z,15.08
2018-04-02T14:27:22.788Z,15.03
2018-04-02T14:29:56.711Z,15.06
2018-04-02T14:30:48.510Z,15.03
2018-04-02T14:31:47.494Z,15.05
2018-04-02T14:33:06.241Z,15.05
2018-04-02T14:34:05.944Z,15.03
2018-04-02T14:35:13.012Z,14.99
2018-04-02T14:36:15.681Z,15.06
2018-04-02T14:37:22.652Z,15.01
2018-04-02T14:38:18.873Z,15.05
2018-04-02T14:39:23.383Z,15.01
2018-04-02T14:40:34.141Z,15.12
2018-04-02T14:41:50.541Z,15.15
2018-04-02T14:42:47.979Z,15.21
2018-04-02T14:47:10.544Z,15.33
2018-04-02T14:48:18.633Z,15.36
2018-04-02T14:49:19.355Z,15.43
2018-04-02T14:50:26.430Z,15.39
2018-04-02T14:51:28.176Z,15.52
2018-04-02T14:52:30.538Z,15.43
2018-04-02T14:53:36.178Z,15.46
2018-04-02T14:54:54.109Z,15.45
2018-04-02T14:56:03.123Z,15.41
2018-04-02T14:58:02.739Z,15.56
2018-04-02T14:59:12.974Z,15.60
2018-04-02T15:00:15.645Z,15.70
2018-04-02T15:01:14.329Z,15.74
2018-04-02T15:02:29.073Z,15.67
2018-04-02T15:03:30.104Z,15.81
2018-04-02T15:04:39.225Z,15.82
2018-04-02T15:05:41.181Z,15.84
2018-04-02T15:06:42.932Z,15.94
2018-04-02T15:09:05.176Z,15.92
2018-04-02T15:10:13.153Z,15.84
2018-04-02T15:11:03.023Z,15.84
2018-04-02T15:12:15.420Z,15.86
2018-04-02T15:14:26.597Z,15.88
2018-04-02T15:15:39.199Z,15.86
2018-04-02T15:17:39.930Z,15.79
2018-04-02T15:18:47.821Z,15.78
2018-04-02T15:19:46.923Z,15.74
2018-04-02T15:20:58.177Z,15.67
2018-04-02T15:22:10.268Z,15.63
2018-04-02T15:24:15.813Z,15.42
2018-04-02T15:28:47.994Z,15.24
2018-04-02T15:31:59.891Z,15.17
2018-04-02T15:32:57.748Z,15.23
2018-04-02T15:34:05.538Z,15.26
2018-04-02T15:35:07.705Z,15.30
2018-04-02T15:36:13.233Z,15.30
2018-04-02T15:37:20.513Z,15.24
2018-04-02T15:38:29.322Z,15.30
2018-04-02T15:39:29.126Z,15.20
2018-04-02T15:40:45.004Z,15.23
2018-04-02T15:41:47.878Z,15.23
2018-04-02T15:42:52.799Z,15.24
2018-04-02T15:43:55.675Z,15.20
2018-04-02T15:45:06.640Z,15.20
2018-04-02T15:46:04.709Z,15.21
2018-04-02T15:47:11.777Z,15.15
2018-04-02T15:49:29.003Z,15.20
2018-04-02T15:50:28.895Z,15.19
2018-04-02T15:51:31.974Z,15.19
2018-04-02T15:53:42.637Z,15.03
2018-04-02T15:54:57.214Z,15.08
2018-04-02T15:55:53.914Z,15.05
2018-04-02T15:58:09.407Z,14.99
2018-04-02T15:59:13.292Z,15.01
2018-04-02T16:00:17.188Z,14.90
2018-04-02T16:03:25.709Z,14.86
2018-04-02T16:04:35.751Z,14.71
2018-04-02T16:05:47.230Z,14.81
2018-04-02T16:06:49.386Z,14.75
2018-04-02T16:07:53.392Z,14.78
2018-04-02T16:08:58.204Z,14.78
2018-04-02T16:10:09.885Z,14.78
2018-04-02T16:11:17.989Z,14.68
2018-04-02T16:12:20.347Z,14.78
2018-04-02T16:13:22.707Z,14.80
2018-04-02T16:14:32.754Z,14.74
2018-04-02T16:15:34.812Z,14.72
2018-04-02T16:16:48.238Z,14.75
2018-04-02T16:17:42.600Z,14.69
2018-04-02T16:18:56.636Z,14.86
2018-04-02T16:20:14.575Z,14.83
2018-04-02T16:22:09.976Z,14.83
2018-04-02T16:23:25.133Z,14.84
2018-04-02T16:25:25.254Z,14.87
2018-04-02T16:26:29.452Z,14.81
2018-04-02T16:27:39.803Z,14.84
2018-04-02T16:30:51.299Z,14.87
2018-04-02T16:32:08.202Z,14.84
2018-04-02T16:33:11.688Z,14.88
2018-04-02T16:34:09.642Z,14.88
2018-04-02T16:35:19.380Z,14.86
2018-04-02T16:37:25.842Z,14.90
2018-04-02T16:38:32.812Z,14.86
2018-04-02T16:39:36.609Z,14.84
2018-04-02T16:40:46.140Z,14.87
2018-04-02T16:41:50.254Z,14.93
2018-04-02T16:43:57.227Z,15.02
2018-04-02T16:45:12.699Z,14.90
2018-04-02T16:46:04.912Z,14.88
2018-04-02T16:47:15.784Z,14.84
2018-04-02T16:48:31.667Z,14.94
2018-04-02T16:49:22.138Z,14.93
2018-04-02T16:50:26.556Z,14.95
2018-04-02T16:51:35.464Z,14.93
2018-04-02T16:52:43.260Z,14.99